Limedale, Indiana
Current Conditions -  °F | °C
As of 7:35 PM on Sunday 23 Nov 2014 (Local Time) from K4I7 Reporting Station
Light Rain Light Rain  
Wind Chill: 50°   Ceiling: 600
Heat Index: 50°   Visibility: 3mi
Dew Point: 50°   Wind: 8mph
Humidity: 100%   Direction: 140°SE
Pressure: 29.34"   Gusts: NA
Location:  39.6767°N, 86.9214°W
Report Text: K4I7 240035Z AUTO 14007KT 3SM -RA BKN006 OVC011 10/10 A2934 RMK AO2 P0012
Loading
Personal Weather Stations






























Interactive Weather Map New forecast layout! Learn more

10-Day Weather Forecast

Advertisements
Track Severe Weather on mobile